Impacts METAR Board
IDs:

KCLE - Cleveland/Hopkins In, OH, US

Updated at: 0900 UTC 19 Jul 2018
Potential Impact None Slight Moderate High
Time 18/21Z 18/22Z 18/23Z 19/00Z 19/01Z 19/02Z 19/03Z 19/04Z 19/05Z 19/06Z 19/07Z 19/08Z 19/09Z
Temp76 77 77 75 72 72 69 62 63 61 60 60 59
Dewpt54 51 51 50 52 53 54 55 55 56 55 54 53
Altim30.08 30.08 30.07 30.07 30.07 30.08 30.09 30.09 30.10 30.10 30.10 30.10 30.10
VIS10 10 10 10 10 10 10 10 10 10 10 10 10
CIG-- -- -- -- -- -- -- -- -- -- -- -- --
CoverFEWFEWFEWFEWFEWFEWCLRCLRCLRFEWFEWCLRCLR
FltCatVFRVFRVFRVFRVFRVFRVFRVFRVFRVFRVFRVFRVFR
WX--------------------------
WDir3200203602030260220001502600
WSpd8 5 8 7 6 4 3 3 0 0 4 3 0
WGst-- -- -- -- -- -- -- -- -- -- -- -- --
Raw hourly METARs
KCLE 182051Z 32008KT 10SM FEW035 24/12 A3008 RMK AO2 SLP182 T02440122 58009
KCLE 182151Z VRB05KT 10SM FEW035 25/11 A3008 RMK AO2 SLP180 T02500106
KCLE 182251Z 02008KT 10SM FEW035 25/11 A3007 RMK AO2 SLP179 T02500106 $
KCLE 182351Z 36007KT 10SM FEW045 24/10 A3007 RMK AO2 SLP179 T02390100 10250 20239 56003 $
KCLE 190051Z 02006KT 10SM FEW050 22/11 A3007 RMK AO2 SLP179 T02220111 $
KCLE 190151Z 03004KT 10SM FEW250 22/12 A3008 RMK AO2 SLP181 T02220117 $
KCLE 190251Z 26003KT 10SM CLR 21/12 A3009 RMK AO2 SLP185 T02060122 53006 $
KCLE 190351Z 22003KT 10SM CLR 17/13 A3009 RMK AO2 SLP186 T01670128 $
KCLE 190451Z 00000KT 10SM CLR 17/13 A3010 RMK AO2 SLP187 T01720128 402500167 $
KCLE 190551Z 00000KT 10SM FEW250 16/13 A3010 RMK AO2 SLP189 T01610133 10239 20156 53003 $
KCLE 190651Z 15004KT 10SM FEW250 16/13 A3010 RMK AO2 SLP189 T01560128 $
KCLE 190751Z 26003KT 10SM CLR 16/12 A3010 RMK AO2 SLP189 T01560122 $
KCLE 190851Z 00000KT 10SM CLR 15/12 A3010 RMK AO2 SLP188 T01500117 58001 $



Page loaded:  09:34 UTC  |   02:34 AM Pacific  |   03:34 AM Mountain  |   04:34 AM Central  |   05:34 AM Eastern

 

ADVISORIES

FORECASTS

FORECASTS

OBSERVATIONS

USER TOOLS

ABOUT US